sensor_id;sensor_type;location;lat;lon;timestamp;temperature;humidity
52209;DHT22;38507;53.132;6.394;2024-01-11T00:01:46;-4.80;99.90
52209;DHT22;38507;53.132;6.394;2024-01-11T00:04:12;-4.90;99.90
52209;DHT22;38507;53.132;6.394;2024-01-11T00:06:44;-4.90;99.90
52209;DHT22;38507;53.132;6.394;2024-01-11T00:09:10;-4.90;99.90
52209;DHT22;38507;53.132;6.394;2024-01-11T00:11:36;-5.00;99.90
52209;DHT22;38507;53.132;6.394;2024-01-11T00:14:02;-5.00;99.90
52209;DHT22;38507;53.132;6.394;2024-01-11T00:16:27;-5.00;99.90
52209;DHT22;38507;53.132;6.394;2024-01-11T00:18:53;-5.00;99.90
52209;DHT22;38507;53.132;6.394;2024-01-11T00:21:19;-5.00;99.90
52209;DHT22;38507;53.132;6.394;2024-01-11T00:23:44;-5.10;99.90
52209;DHT22;38507;53.132;6.394;2024-01-11T00:26:13;-5.10;99.90
52209;DHT22;38507;53.132;6.394;2024-01-11T00:28:38;-5.10;99.90
52209;DHT22;38507;53.132;6.394;2024-01-11T00:31:04;-5.10;99.90
52209;DHT22;38507;53.132;6.394;2024-01-11T00:33:30;-5.20;99.90
52209;DHT22;38507;53.132;6.394;2024-01-11T00:35:55;-5.10;99.90
52209;DHT22;38507;53.132;6.394;2024-01-11T00:38:21;-5.10;99.90
52209;DHT22;38507;53.132;6.394;2024-01-11T00:40:47;-5.10;99.90
52209;DHT22;38507;53.132;6.394;2024-01-11T00:43:12;-5.10;99.90
52209;DHT22;38507;53.132;6.394;2024-01-11T00:45:38;-5.20;99.90
52209;DHT22;38507;53.132;6.394;2024-01-11T00:48:04;-5.20;99.90
52209;DHT22;38507;53.132;6.394;2024-01-11T00:50:30;-5.20;99.90
52209;DHT22;38507;53.132;6.394;2024-01-11T00:52:56;-5.20;99.90
52209;DHT22;38507;53.132;6.394;2024-01-11T00:55:21;-5.10;99.90
52209;DHT22;38507;53.132;6.394;2024-01-11T00:57:47;-5.10;99.90
52209;DHT22;38507;53.132;6.394;2024-01-11T01:00:13;-5.10;99.90
52209;DHT22;38507;53.132;6.394;2024-01-11T01:02:39;-5.20;99.90
52209;DHT22;38507;53.132;6.394;2024-01-11T01:05:05;-5.10;99.90
52209;DHT22;38507;53.132;6.394;2024-01-11T01:07:32;-5.10;99.90
52209;DHT22;38507;53.132;6.394;2024-01-11T01:09:57;-5.10;99.90
52209;DHT22;38507;53.132;6.394;2024-01-11T01:12:23;-5.10;99.90
52209;DHT22;38507;53.132;6.394;2024-01-11T01:14:51;-5.10;99.90
52209;DHT22;38507;53.132;6.394;2024-01-11T01:17:17;-5.10;99.90
52209;DHT22;38507;53.132;6.394;2024-01-11T01:19:43;-5.10;99.90
52209;DHT22;38507;53.132;6.394;2024-01-11T01:22:08;-5.20;99.90
52209;DHT22;38507;53.132;6.394;2024-01-11T01:24:34;-5.10;99.90
52209;DHT22;38507;53.132;6.394;2024-01-11T01:27:00;-5.20;99.90
52209;DHT22;38507;53.132;6.394;2024-01-11T01:29:26;-5.20;99.90
52209;DHT22;38507;53.132;6.394;2024-01-11T01:31:52;-5.20;99.90
52209;DHT22;38507;53.132;6.394;2024-01-11T01:34:18;-5.20;99.90
52209;DHT22;38507;53.132;6.394;2024-01-11T01:36:44;-5.20;99.90
52209;DHT22;38507;53.132;6.394;2024-01-11T01:39:11;-5.30;99.90
52209;DHT22;38507;53.132;6.394;2024-01-11T01:41:36;-5.30;99.90
52209;DHT22;38507;53.132;6.394;2024-01-11T01:44:02;-5.30;99.90
52209;DHT22;38507;53.132;6.394;2024-01-11T01:46:28;-5.30;99.90
52209;DHT22;38507;53.132;6.394;2024-01-11T01:48:56;-5.30;99.90
52209;DHT22;38507;53.132;6.394;2024-01-11T01:51:24;-5.40;99.90
52209;DHT22;38507;53.132;6.394;2024-01-11T01:53:52;-5.40;99.90
52209;DHT22;38507;53.132;6.394;2024-01-11T01:56:19;-5.40;99.90
52209;DHT22;38507;53.132;6.394;2024-01-11T01:58:45;-5.40;99.90
52209;DHT22;38507;53.132;6.394;2024-01-11T02:01:12;-5.40;99.90
52209;DHT22;38507;53.132;6.394;2024-01-11T02:03:40;-5.40;99.90
52209;DHT22;38507;53.132;6.394;2024-01-11T02:06:06;-5.50;99.90
52209;DHT22;38507;53.132;6.394;2024-01-11T02:08:33;-5.50;99.90
52209;DHT22;38507;53.132;6.394;2024-01-11T02:11:00;-5.50;99.90
52209;DHT22;38507;53.132;6.394;2024-01-11T02:13:26;-5.60;99.90
52209;DHT22;38507;53.132;6.394;2024-01-11T02:15:52;-5.60;99.90
52209;DHT22;38507;53.132;6.394;2024-01-11T02:18:17;-5.60;99.90
52209;DHT22;38507;53.132;6.394;2024-01-11T02:20:43;-5.60;99.90
52209;DHT22;38507;53.132;6.394;2024-01-11T02:23:17;-5.60;99.90
52209;DHT22;38507;53.132;6.394;2024-01-11T02:25:43;-5.60;99.90
52209;DHT22;38507;53.132;6.394;2024-01-11T02:28:08;-5.70;99.90
52209;DHT22;38507;53.132;6.394;2024-01-11T02:30:34;-5.70;99.90
52209;DHT22;38507;53.132;6.394;2024-01-11T02:33:01;-5.70;99.90
52209;DHT22;38507;53.132;6.394;2024-01-11T02:35:27;-5.70;99.90
52209;DHT22;38507;53.132;6.394;2024-01-11T02:37:53;-5.70;99.90
52209;DHT22;38507;53.132;6.394;2024-01-11T02:40:19;-5.70;99.90
52209;DHT22;38507;53.132;6.394;2024-01-11T02:42:45;-5.80;99.90
52209;DHT22;38507;53.132;6.394;2024-01-11T02:45:12;-5.80;99.90
52209;DHT22;38507;53.132;6.394;2024-01-11T02:47:38;-5.80;99.90
52209;DHT22;38507;53.132;6.394;2024-01-11T02:50:05;-5.80;99.90
52209;DHT22;38507;53.132;6.394;2024-01-11T02:52:30;-5.90;99.90
52209;DHT22;38507;53.132;6.394;2024-01-11T02:54:57;-5.90;99.90
52209;DHT22;38507;53.132;6.394;2024-01-11T02:57:22;-5.90;99.90
52209;DHT22;38507;53.132;6.394;2024-01-11T02:59:49;-5.90;99.90
52209;DHT22;38507;53.132;6.394;2024-01-11T03:02:15;-5.90;99.90
52209;DHT22;38507;53.132;6.394;2024-01-11T03:04:41;-5.30;99.90
52209;DHT22;38507;53.132;6.394;2024-01-11T03:07:06;-6.00;99.90
52209;DHT22;38507;53.132;6.394;2024-01-11T03:09:32;-6.00;99.90
52209;DHT22;38507;53.132;6.394;2024-01-11T03:11:59;-6.00;99.90
52209;DHT22;38507;53.132;6.394;2024-01-11T03:14:25;-6.00;99.90
52209;DHT22;38507;53.132;6.394;2024-01-11T03:16:50;-6.00;99.90
52209;DHT22;38507;53.132;6.394;2024-01-11T03:19:16;-6.00;99.90
52209;DHT22;38507;53.132;6.394;2024-01-11T03:21:45;-6.00;99.90
52209;DHT22;38507;53.132;6.394;2024-01-11T03:24:12;-6.00;99.90
52209;DHT22;38507;53.132;6.394;2024-01-11T03:26:38;-6.00;99.90
52209;DHT22;38507;53.132;6.394;2024-01-11T03:29:03;-6.00;99.90
52209;DHT22;38507;53.132;6.394;2024-01-11T03:31:29;-6.00;99.90
52209;DHT22;38507;53.132;6.394;2024-01-11T03:33:54;-6.00;99.90
52209;DHT22;38507;53.132;6.394;2024-01-11T03:36:23;-6.10;99.90
52209;DHT22;38507;53.132;6.394;2024-01-11T03:38:49;-6.10;99.90
52209;DHT22;38507;53.132;6.394;2024-01-11T03:41:15;-6.10;99.90
52209;DHT22;38507;53.132;6.394;2024-01-11T03:43:40;-4.60;99.90
52209;DHT22;38507;53.132;6.394;2024-01-11T03:46:06;-6.10;99.90
52209;DHT22;38507;53.132;6.394;2024-01-11T03:48:32;-6.10;99.90
52209;DHT22;38507;53.132;6.394;2024-01-11T03:50:57;-6.10;99.90
52209;DHT22;38507;53.132;6.394;2024-01-11T03:53:23;-6.20;99.90
52209;DHT22;38507;53.132;6.394;2024-01-11T03:55:49;-6.10;99.90
52209;DHT22;38507;53.132;6.394;2024-01-11T03:58:14;-6.10;99.90
52209;DHT22;38507;53.132;6.394;2024-01-11T04:00:40;-6.10;99.90
52209;DHT22;38507;53.132;6.394;2024-01-11T04:03:08;-6.20;99.90
52209;DHT22;38507;53.132;6.394;2024-01-11T04:05:34;-6.20;99.90
52209;DHT22;38507;53.132;6.394;2024-01-11T04:08:00;-6.20;99.90
52209;DHT22;38507;53.132;6.394;2024-01-11T04:10:28;-6.20;99.90
52209;DHT22;38507;53.132;6.394;2024-01-11T04:12:53;-6.20;99.90
52209;DHT22;38507;53.132;6.394;2024-01-11T04:15:19;-6.20;99.90
52209;DHT22;38507;53.132;6.394;2024-01-11T04:17:45;-6.20;99.90
52209;DHT22;38507;53.132;6.394;2024-01-11T04:20:11;-6.20;99.90
52209;DHT22;38507;53.132;6.394;2024-01-11T04:22:36;-6.10;99.90
52209;DHT22;38507;53.132;6.394;2024-01-11T04:25:02;-6.10;99.90
52209;DHT22;38507;53.132;6.394;2024-01-11T04:27:28;-6.10;99.90
52209;DHT22;38507;53.132;6.394;2024-01-11T04:29:53;-6.10;99.90
52209;DHT22;38507;53.132;6.394;2024-01-11T04:32:19;-6.10;99.90
52209;DHT22;38507;53.132;6.394;2024-01-11T04:34:45;-6.10;99.90
52209;DHT22;38507;53.132;6.394;2024-01-11T04:37:10;-6.10;99.90
52209;DHT22;38507;53.132;6.394;2024-01-11T04:39:36;-6.00;99.90
52209;DHT22;38507;53.132;6.394;2024-01-11T04:42:02;-6.00;99.90
52209;DHT22;38507;53.132;6.394;2024-01-11T04:44:27;-6.00;99.90
52209;DHT22;38507;53.132;6.394;2024-01-11T04:46:53;-5.90;99.90
52209;DHT22;38507;53.132;6.394;2024-01-11T04:49:19;-5.90;99.90
52209;DHT22;38507;53.132;6.394;2024-01-11T04:51:44;-5.90;99.90
52209;DHT22;38507;53.132;6.394;2024-01-11T04:54:10;-5.80;99.90
52209;DHT22;38507;53.132;6.394;2024-01-11T04:56:36;-5.70;99.90
52209;DHT22;38507;53.132;6.394;2024-01-11T04:59:01;-5.70;99.90
52209;DHT22;38507;53.132;6.394;2024-01-11T05:01:27;-5.70;99.90
52209;DHT22;38507;53.132;6.394;2024-01-11T05:03:52;-5.60;99.90
52209;DHT22;38507;53.132;6.394;2024-01-11T05:06:20;-5.50;99.90
52209;DHT22;38507;53.132;6.394;2024-01-11T05:08:51;-5.50;99.90
52209;DHT22;38507;53.132;6.394;2024-01-11T05:11:24;-5.40;99.90
52209;DHT22;38507;53.132;6.394;2024-01-11T05:13:51;-5.30;99.90
52209;DHT22;38507;53.132;6.394;2024-01-11T05:16:21;-5.30;99.90
52209;DHT22;38507;53.132;6.394;2024-01-11T05:18:48;-5.20;99.90
52209;DHT22;38507;53.132;6.394;2024-01-11T05:21:14;-5.20;99.90
52209;DHT22;38507;53.132;6.394;2024-01-11T05:23:43;-5.10;99.90
52209;DHT22;38507;53.132;6.394;2024-01-11T05:26:14;-5.10;99.90
52209;DHT22;38507;53.132;6.394;2024-01-11T05:28:40;-5.00;99.90
52209;DHT22;38507;53.132;6.394;2024-01-11T05:31:07;-5.00;99.90
52209;DHT22;38507;53.132;6.394;2024-01-11T05:33:33;-4.90;99.90
52209;DHT22;38507;53.132;6.394;2024-01-11T05:35:59;-4.80;99.90
52209;DHT22;38507;53.132;6.394;2024-01-11T05:38:25;-4.80;99.90
52209;DHT22;38507;53.132;6.394;2024-01-11T05:40:50;-4.80;99.90
52209;DHT22;38507;53.132;6.394;2024-01-11T05:43:16;-4.70;99.90
52209;DHT22;38507;53.132;6.394;2024-01-11T05:45:41;-4.60;99.90
52209;DHT22;38507;53.132;6.394;2024-01-11T05:48:07;-4.60;99.90
52209;DHT22;38507;53.132;6.394;2024-01-11T05:50:33;-4.50;99.90
52209;DHT22;38507;53.132;6.394;2024-01-11T05:52:58;-4.50;99.90
52209;DHT22;38507;53.132;6.394;2024-01-11T05:55:24;-4.40;99.90
52209;DHT22;38507;53.132;6.394;2024-01-11T05:57:49;-4.30;99.90
52209;DHT22;38507;53.132;6.394;2024-01-11T06:00:15;-4.30;99.90
52209;DHT22;38507;53.132;6.394;2024-01-11T06:02:41;-4.30;99.90
52209;DHT22;38507;53.132;6.394;2024-01-11T06:05:10;-4.20;99.90
52209;DHT22;38507;53.132;6.394;2024-01-11T06:07:38;-4.10;99.90
52209;DHT22;38507;53.132;6.394;2024-01-11T06:10:04;-4.10;99.90
52209;DHT22;38507;53.132;6.394;2024-01-11T06:12:32;-4.00;99.90
52209;DHT22;38507;53.132;6.394;2024-01-11T06:14:58;-4.00;99.90
52209;DHT22;38507;53.132;6.394;2024-01-11T06:17:24;-4.00;99.90
52209;DHT22;38507;53.132;6.394;2024-01-11T06:19:49;-3.80;99.90
52209;DHT22;38507;53.132;6.394;2024-01-11T06:22:15;-3.80;99.90
52209;DHT22;38507;53.132;6.394;2024-01-11T06:24:41;-3.80;99.90
52209;DHT22;38507;53.132;6.394;2024-01-11T06:27:07;-3.80;99.90
52209;DHT22;38507;53.132;6.394;2024-01-11T06:29:32;-3.70;99.90
52209;DHT22;38507;53.132;6.394;2024-01-11T06:31:58;-3.70;99.90
52209;DHT22;38507;53.132;6.394;2024-01-11T06:34:24;-3.60;99.90
52209;DHT22;38507;53.132;6.394;2024-01-11T06:36:49;-3.60;99.90
52209;DHT22;38507;53.132;6.394;2024-01-11T06:39:15;-3.50;99.90
52209;DHT22;38507;53.132;6.394;2024-01-11T06:41:41;-3.50;99.90
52209;DHT22;38507;53.132;6.394;2024-01-11T06:44:06;-3.50;99.90
52209;DHT22;38507;53.132;6.394;2024-01-11T06:46:32;-3.40;99.90
52209;DHT22;38507;53.132;6.394;2024-01-11T06:48:58;-3.30;99.90
52209;DHT22;38507;53.132;6.394;2024-01-11T06:51:23;-3.30;99.90
52209;DHT22;38507;53.132;6.394;2024-01-11T06:53:49;-3.20;99.90
52209;DHT22;38507;53.132;6.394;2024-01-11T06:56:16;-3.20;99.90
52209;DHT22;38507;53.132;6.394;2024-01-11T06:58:46;-3.10;99.90
52209;DHT22;38507;53.132;6.394;2024-01-11T07:01:12;-3.10;99.90
52209;DHT22;38507;53.132;6.394;2024-01-11T07:03:38;-3.10;99.90
52209;DHT22;38507;53.132;6.394;2024-01-11T07:06:04;-3.00;99.90
52209;DHT22;38507;53.132;6.394;2024-01-11T07:08:30;-3.00;99.90
52209;DHT22;38507;53.132;6.394;2024-01-11T07:10:58;-3.00;99.90
52209;DHT22;38507;53.132;6.394;2024-01-11T07:13:23;-2.90;99.90
52209;DHT22;38507;53.132;6.394;2024-01-11T07:15:49;-2.90;99.90
52209;DHT22;38507;53.132;6.394;2024-01-11T07:18:17;-2.90;99.90
52209;DHT22;38507;53.132;6.394;2024-01-11T07:20:43;-2.80;99.90
52209;DHT22;38507;53.132;6.394;2024-01-11T07:23:09;-2.80;99.90
52209;DHT22;38507;53.132;6.394;2024-01-11T07:25:34;-2.60;99.90
52209;DHT22;38507;53.132;6.394;2024-01-11T07:28:01;-2.70;99.90
52209;DHT22;38507;53.132;6.394;2024-01-11T07:30:26;-2.70;99.90
52209;DHT22;38507;53.132;6.394;2024-01-11T07:32:52;-2.70;99.90
52209;DHT22;38507;53.132;6.394;2024-01-11T07:35:18;-2.60;99.90
52209;DHT22;38507;53.132;6.394;2024-01-11T07:37:43;-2.60;99.90
52209;DHT22;38507;53.132;6.394;2024-01-11T07:40:09;-2.50;99.90
52209;DHT22;38507;53.132;6.394;2024-01-11T07:42:40;-2.50;99.90
52209;DHT22;38507;53.132;6.394;2024-01-11T07:45:06;-2.50;99.90
52209;DHT22;38507;53.132;6.394;2024-01-11T07:47:33;-2.50;99.90
52209;DHT22;38507;53.132;6.394;2024-01-11T07:49:59;-2.50;99.90
52209;DHT22;38507;53.132;6.394;2024-01-11T07:52:24;-2.40;99.90
52209;DHT22;38507;53.132;6.394;2024-01-11T07:54:50;-2.40;99.90
52209;DHT22;38507;53.132;6.394;2024-01-11T07:57:16;-2.40;99.90
52209;DHT22;38507;53.132;6.394;2024-01-11T07:59:42;-2.30;99.90
52209;DHT22;38507;53.132;6.394;2024-01-11T08:02:08;-2.30;99.90
52209;DHT22;38507;53.132;6.394;2024-01-11T08:04:33;-2.30;99.90
52209;DHT22;38507;53.132;6.394;2024-01-11T08:06:59;-2.30;99.90
52209;DHT22;38507;53.132;6.394;2024-01-11T08:09:25;-2.30;99.90
52209;DHT22;38507;53.132;6.394;2024-01-11T08:11:51;-2.20;99.90
52209;DHT22;38507;53.132;6.394;2024-01-11T08:14:20;-2.20;99.90
52209;DHT22;38507;53.132;6.394;2024-01-11T08:16:45;-2.10;99.90
52209;DHT22;38507;53.132;6.394;2024-01-11T08:19:11;-2.10;99.90
52209;DHT22;38507;53.132;6.394;2024-01-11T08:21:39;-2.10;99.90
52209;DHT22;38507;53.132;6.394;2024-01-11T08:24:05;-2.00;99.90
52209;DHT22;38507;53.132;6.394;2024-01-11T08:26:32;-2.00;99.90
52209;DHT22;38507;53.132;6.394;2024-01-11T08:28:57;-2.00;99.90
52209;DHT22;38507;53.132;6.394;2024-01-11T08:31:23;-2.00;99.90
52209;DHT22;38507;53.132;6.394;2024-01-11T08:33:49;-1.90;99.90
52209;DHT22;38507;53.132;6.394;2024-01-11T08:36:16;-1.90;99.90
52209;DHT22;38507;53.132;6.394;2024-01-11T08:38:42;-1.90;99.90
52209;DHT22;38507;53.132;6.394;2024-01-11T08:41:07;-1.80;99.90
52209;DHT22;38507;53.132;6.394;2024-01-11T08:43:33;-1.80;99.90
52209;DHT22;38507;53.132;6.394;2024-01-11T08:45:59;-1.70;99.90
52209;DHT22;38507;53.132;6.394;2024-01-11T08:48:27;-1.70;99.90
52209;DHT22;38507;53.132;6.394;2024-01-11T08:50:53;-1.60;99.90
52209;DHT22;38507;53.132;6.394;2024-01-11T08:53:19;-1.60;99.90
52209;DHT22;38507;53.132;6.394;2024-01-11T08:55:45;-1.60;99.90
52209;DHT22;38507;53.132;6.394;2024-01-11T08:58:11;-1.60;99.90
52209;DHT22;38507;53.132;6.394;2024-01-11T09:00:37;-1.50;99.90
52209;DHT22;38507;53.132;6.394;2024-01-11T09:03:03;-1.50;99.90
52209;DHT22;38507;53.132;6.394;2024-01-11T09:05:29;-1.40;99.90
52209;DHT22;38507;53.132;6.394;2024-01-11T09:07:55;-0.70;99.90
52209;DHT22;38507;53.132;6.394;2024-01-11T09:10:21;-1.30;99.90
52209;DHT22;38507;53.132;6.394;2024-01-11T09:12:46;-1.30;99.90
52209;DHT22;38507;53.132;6.394;2024-01-11T09:15:12;-1.30;99.90
52209;DHT22;38507;53.132;6.394;2024-01-11T09:17:39;-1.20;99.90
52209;DHT22;38507;53.132;6.394;2024-01-11T09:20:05;-1.20;99.90
52209;DHT22;38507;53.132;6.394;2024-01-11T09:22:31;-1.10;99.90
52209;DHT22;38507;53.132;6.394;2024-01-11T09:24:56;-1.10;99.90
52209;DHT22;38507;53.132;6.394;2024-01-11T09:27:22;-1.10;99.90
52209;DHT22;38507;53.132;6.394;2024-01-11T09:29:48;-1.00;99.90
52209;DHT22;38507;53.132;6.394;2024-01-11T09:32:14;-1.00;99.90
52209;DHT22;38507;53.132;6.394;2024-01-11T09:34:39;-0.90;99.90
52209;DHT22;38507;53.132;6.394;2024-01-11T09:37:05;-0.90;99.90
52209;DHT22;38507;53.132;6.394;2024-01-11T09:39:31;-0.80;99.90
52209;DHT22;38507;53.132;6.394;2024-01-11T09:42:17;-0.80;99.90
52209;DHT22;38507;53.132;6.394;2024-01-11T09:44:44;-0.70;99.90
52209;DHT22;38507;53.132;6.394;2024-01-11T09:47:10;-0.70;99.90
52209;DHT22;38507;53.132;6.394;2024-01-11T09:49:38;-0.60;99.90
52209;DHT22;38507;53.132;6.394;2024-01-11T09:52:05;-0.60;99.90
52209;DHT22;38507;53.132;6.394;2024-01-11T09:54:31;-0.50;99.90
52209;DHT22;38507;53.132;6.394;2024-01-11T09:56:59;-0.30;99.90
52209;DHT22;38507;53.132;6.394;2024-01-11T09:59:25;-0.40;99.90
52209;DHT22;38507;53.132;6.394;2024-01-11T10:01:51;-0.40;99.90
52209;DHT22;38507;53.132;6.394;2024-01-11T10:04:18;-0.30;99.90
52209;DHT22;38507;53.132;6.394;2024-01-11T10:06:44;-0.30;99.90
52209;DHT22;38507;53.132;6.394;2024-01-11T10:09:09;-0.30;99.90
52209;DHT22;38507;53.132;6.394;2024-01-11T10:11:36;-0.20;99.90
52209;DHT22;38507;53.132;6.394;2024-01-11T10:14:02;-0.20;99.90
52209;DHT22;38507;53.132;6.394;2024-01-11T10:16:28;-0.20;99.90
52209;DHT22;38507;53.132;6.394;2024-01-11T10:18:55;-0.10;99.90
52209;DHT22;38507;53.132;6.394;2024-01-11T10:21:21;-0.10;99.90
52209;DHT22;38507;53.132;6.394;2024-01-11T10:23:48;-0.10;99.90
52209;DHT22;38507;53.132;6.394;2024-01-11T10:26:17;0.00;99.90
52209;DHT22;38507;53.132;6.394;2024-01-11T10:28:46;0.00;99.90
52209;DHT22;38507;53.132;6.394;2024-01-11T10:31:12;0.10;99.90
52209;DHT22;38507;53.132;6.394;2024-01-11T10:33:40;0.10;99.90
52209;DHT22;38507;53.132;6.394;2024-01-11T10:36:06;0.10;99.90
52209;DHT22;38507;53.132;6.394;2024-01-11T10:38:39;0.20;99.90
52209;DHT22;38507;53.132;6.394;2024-01-11T10:41:06;0.20;99.90
52209;DHT22;38507;53.132;6.394;2024-01-11T10:43:33;0.20;99.90
52209;DHT22;38507;53.132;6.394;2024-01-11T10:46:02;0.30;99.90
52209;DHT22;38507;53.132;6.394;2024-01-11T10:48:31;0.30;99.90
52209;DHT22;38507;53.132;6.394;2024-01-11T10:51:01;0.30;99.90
52209;DHT22;38507;53.132;6.394;2024-01-11T10:53:43;0.30;99.90
52209;DHT22;38507;53.132;6.394;2024-01-11T10:56:11;0.40;99.90
52209;DHT22;38507;53.132;6.394;2024-01-11T10:58:41;0.40;99.90
52209;DHT22;38507;53.132;6.394;2024-01-11T11:01:08;0.40;99.90
52209;DHT22;38507;53.132;6.394;2024-01-11T11:03:36;0.40;99.90
52209;DHT22;38507;53.132;6.394;2024-01-11T11:06:02;0.50;99.90
52209;DHT22;38507;53.132;6.394;2024-01-11T11:08:29;0.50;99.90
52209;DHT22;38507;53.132;6.394;2024-01-11T11:10:56;0.50;99.90
52209;DHT22;38507;53.132;6.394;2024-01-11T11:13:23;0.50;99.90
52209;DHT22;38507;53.132;6.394;2024-01-11T11:15:48;0.50;99.90
52209;DHT22;38507;53.132;6.394;2024-01-11T11:18:18;0.60;99.90
52209;DHT22;38507;53.132;6.394;2024-01-11T11:20:44;0.60;99.90
52209;DHT22;38507;53.132;6.394;2024-01-11T11:23:20;0.60;99.90
52209;DHT22;38507;53.132;6.394;2024-01-11T11:25:47;0.70;99.90
52209;DHT22;38507;53.132;6.394;2024-01-11T11:28:14;0.70;99.90
52209;DHT22;38507;53.132;6.394;2024-01-11T11:30:42;0.70;99.90
52209;DHT22;38507;53.132;6.394;2024-01-11T11:33:23;0.80;99.90
52209;DHT22;38507;53.132;6.394;2024-01-11T11:35:53;0.80;99.90
52209;DHT22;38507;53.132;6.394;2024-01-11T11:38:25;0.90;99.90
52209;DHT22;38507;53.132;6.394;2024-01-11T11:40:52;0.90;99.90
52209;DHT22;38507;53.132;6.394;2024-01-11T11:43:20;0.90;99.90
52209;DHT22;38507;53.132;6.394;2024-01-11T11:45:47;0.90;99.90
52209;DHT22;38507;53.132;6.394;2024-01-11T11:51:14;1.00;99.90
52209;DHT22;38507;53.132;6.394;2024-01-11T11:53:40;1.10;99.90
52209;DHT22;38507;53.132;6.394;2024-01-11T11:56:09;2.10;99.90
52209;DHT22;38507;53.132;6.394;2024-01-11T11:58:40;1.10;99.90
52209;DHT22;38507;53.132;6.394;2024-01-11T12:01:05;1.10;99.90
52209;DHT22;38507;53.132;6.394;2024-01-11T12:03:36;1.10;99.90
52209;DHT22;38507;53.132;6.394;2024-01-11T12:06:06;1.20;99.90
52209;DHT22;38507;53.132;6.394;2024-01-11T12:08:32;1.20;99.90
52209;DHT22;38507;53.132;6.394;2024-01-11T12:10:58;1.20;99.90
52209;DHT22;38507;53.132;6.394;2024-01-11T12:13:26;1.20;99.90
52209;DHT22;38507;53.132;6.394;2024-01-11T12:15:52;1.10;99.90
52209;DHT22;38507;53.132;6.394;2024-01-11T12:18:18;1.20;99.90
52209;DHT22;38507;53.132;6.394;2024-01-11T12:20:44;2.20;99.90
52209;DHT22;38507;53.132;6.394;2024-01-11T12:23:10;1.20;99.90
52209;DHT22;38507;53.132;6.394;2024-01-11T12:25:36;1.20;99.90
52209;DHT22;38507;53.132;6.394;2024-01-11T12:28:02;2.20;99.90
52209;DHT22;38507;53.132;6.394;2024-01-11T12:30:28;1.20;99.90
52209;DHT22;38507;53.132;6.394;2024-01-11T12:32:55;1.70;99.90
52209;DHT22;38507;53.132;6.394;2024-01-11T12:35:22;1.20;99.90
52209;DHT22;38507;53.132;6.394;2024-01-11T12:38:01;1.20;99.90
52209;DHT22;38507;53.132;6.394;2024-01-11T12:40:27;1.20;99.90
52209;DHT22;38507;53.132;6.394;2024-01-11T12:42:53;1.30;99.90
52209;DHT22;38507;53.132;6.394;2024-01-11T12:45:20;1.30;99.90
52209;DHT22;38507;53.132;6.394;2024-01-11T12:47:46;1.20;99.90
52209;DHT22;38507;53.132;6.394;2024-01-11T12:50:12;1.30;99.90
52209;DHT22;38507;53.132;6.394;2024-01-11T12:52:38;1.20;99.90
52209;DHT22;38507;53.132;6.394;2024-01-11T12:55:08;1.30;99.90
52209;DHT22;38507;53.132;6.394;2024-01-11T12:57:34;1.30;99.90
52209;DHT22;38507;53.132;6.394;2024-01-11T13:00:11;1.30;99.90
52209;DHT22;38507;53.132;6.394;2024-01-11T13:02:37;1.40;99.90
52209;DHT22;38507;53.132;6.394;2024-01-11T13:05:04;1.40;99.90
52209;DHT22;38507;53.132;6.394;2024-01-11T13:07:30;1.40;99.90
52209;DHT22;38507;53.132;6.394;2024-01-11T13:09:56;2.60;99.90
52209;DHT22;38507;53.132;6.394;2024-01-11T13:12:22;1.40;99.90
52209;DHT22;38507;53.132;6.394;2024-01-11T13:14:48;1.40;99.90
52209;DHT22;38507;53.132;6.394;2024-01-11T13:17:14;1.40;99.90
52209;DHT22;38507;53.132;6.394;2024-01-11T13:19:39;1.50;99.90
52209;DHT22;38507;53.132;6.394;2024-01-11T13:22:05;1.50;99.90
52209;DHT22;38507;53.132;6.394;2024-01-11T13:24:31;1.50;99.90
52209;DHT22;38507;53.132;6.394;2024-01-11T13:26:57;1.50;99.90
52209;DHT22;38507;53.132;6.394;2024-01-11T13:29:22;1.50;99.90
52209;DHT22;38507;53.132;6.394;2024-01-11T13:31:48;1.50;99.90
52209;DHT22;38507;53.132;6.394;2024-01-11T13:34:14;1.60;99.90
52209;DHT22;38507;53.132;6.394;2024-01-11T13:36:39;1.50;99.90
52209;DHT22;38507;53.132;6.394;2024-01-11T13:39:05;1.60;99.90
52209;DHT22;38507;53.132;6.394;2024-01-11T13:41:33;1.60;99.90
52209;DHT22;38507;53.132;6.394;2024-01-11T13:43:59;1.60;99.90
52209;DHT22;38507;53.132;6.394;2024-01-11T13:46:25;1.60;99.90
52209;DHT22;38507;53.132;6.394;2024-01-11T13:48:51;1.70;99.90
52209;DHT22;38507;53.132;6.394;2024-01-11T13:51:17;1.60;99.90
52209;DHT22;38507;53.132;6.394;2024-01-11T13:53:42;1.70;99.90
52209;DHT22;38507;53.132;6.394;2024-01-11T13:56:08;1.70;99.90
52209;DHT22;38507;53.132;6.394;2024-01-11T13:58:34;1.70;99.90
52209;DHT22;38507;53.132;6.394;2024-01-11T14:01:00;1.70;99.90
52209;DHT22;38507;53.132;6.394;2024-01-11T14:03:26;1.70;99.90
52209;DHT22;38507;53.132;6.394;2024-01-11T14:05:52;3.10;99.90
52209;DHT22;38507;53.132;6.394;2024-01-11T14:08:17;1.70;99.90
52209;DHT22;38507;53.132;6.394;2024-01-11T14:10:43;1.80;99.90
52209;DHT22;38507;53.132;6.394;2024-01-11T14:13:09;1.80;99.90
52209;DHT22;38507;53.132;6.394;2024-01-11T14:15:35;1.80;99.90
52209;DHT22;38507;53.132;6.394;2024-01-11T14:18:00;1.80;99.90
52209;DHT22;38507;53.132;6.394;2024-01-11T14:20:26;1.80;99.90
52209;DHT22;38507;53.132;6.394;2024-01-11T14:22:52;1.90;99.90
52209;DHT22;38507;53.132;6.394;2024-01-11T14:25:22;1.90;99.90
52209;DHT22;38507;53.132;6.394;2024-01-11T14:27:50;1.90;99.90
52209;DHT22;38507;53.132;6.394;2024-01-11T14:30:16;1.90;99.90
52209;DHT22;38507;53.132;6.394;2024-01-11T14:32:41;1.90;99.90
52209;DHT22;38507;53.132;6.394;2024-01-11T14:35:08;2.90;99.90
52209;DHT22;38507;53.132;6.394;2024-01-11T14:37:34;1.90;99.90
52209;DHT22;38507;53.132;6.394;2024-01-11T14:40:01;2.00;99.90
52209;DHT22;38507;53.132;6.394;2024-01-11T14:42:27;1.90;99.90
52209;DHT22;38507;53.132;6.394;2024-01-11T14:44:53;2.00;99.90
52209;DHT22;38507;53.132;6.394;2024-01-11T14:47:19;2.00;99.90
52209;DHT22;38507;53.132;6.394;2024-01-11T14:49:46;1.90;99.90
52209;DHT22;38507;53.132;6.394;2024-01-11T14:52:12;2.00;99.90
52209;DHT22;38507;53.132;6.394;2024-01-11T14:54:38;2.00;99.90
52209;DHT22;38507;53.132;6.394;2024-01-11T14:57:04;2.30;99.90
52209;DHT22;38507;53.132;6.394;2024-01-11T14:59:31;2.00;99.90
52209;DHT22;38507;53.132;6.394;2024-01-11T15:01:58;3.20;99.90
52209;DHT22;38507;53.132;6.394;2024-01-11T15:04:25;2.00;99.90
52209;DHT22;38507;53.132;6.394;2024-01-11T15:06:51;2.40;99.90
52209;DHT22;38507;53.132;6.394;2024-01-11T15:09:16;2.00;99.90
52209;DHT22;38507;53.132;6.394;2024-01-11T15:11:42;2.00;99.90
52209;DHT22;38507;53.132;6.394;2024-01-11T15:14:08;2.00;99.90
52209;DHT22;38507;53.132;6.394;2024-01-11T15:16:37;1.90;99.90
52209;DHT22;38507;53.132;6.394;2024-01-11T15:19:03;1.90;99.90
52209;DHT22;38507;53.132;6.394;2024-01-11T15:21:29;2.00;99.90
52209;DHT22;38507;53.132;6.394;2024-01-11T15:23:56;1.90;99.90
52209;DHT22;38507;53.132;6.394;2024-01-11T15:26:22;1.90;99.90
52209;DHT22;38507;53.132;6.394;2024-01-11T15:28:48;1.90;99.90
52209;DHT22;38507;53.132;6.394;2024-01-11T15:31:13;1.90;99.90
52209;DHT22;38507;53.132;6.394;2024-01-11T15:33:42;1.90;99.90